createdAt,value
2018-02-20T00:00:42.333Z,59.80
2018-02-20T00:03:09.870Z,67.95
2018-02-20T00:05:37.454Z,68.07
2018-02-20T00:08:05.035Z,70.62
2018-02-20T00:10:33.405Z,65.97
2018-02-20T00:13:00.984Z,70.50
2018-02-20T00:15:28.580Z,71.37
2018-02-20T00:17:56.135Z,69.55
2018-02-20T00:20:23.887Z,70.00
2018-02-20T00:22:51.439Z,69.43
2018-02-20T00:25:19.011Z,70.40
2018-02-20T00:27:46.846Z,73.43
2018-02-20T00:30:14.447Z,69.72
2018-02-20T00:32:42.105Z,68.40
2018-02-20T00:35:09.642Z,65.25
2018-02-20T00:37:37.975Z,61.97
2018-02-20T00:40:05.610Z,66.87
2018-02-20T00:42:33.179Z,55.75
2018-02-20T00:45:00.784Z,61.05
2018-02-20T00:47:28.317Z,58.35
2018-02-20T00:49:55.928Z,54.97
2018-02-20T00:52:23.523Z,58.53
2018-02-20T00:54:51.225Z,56.90
2018-02-20T00:57:18.877Z,55.12
2018-02-20T00:59:46.998Z,54.75
2018-02-20T01:02:14.566Z,65.55
2018-02-20T01:04:42.230Z,59.17
2018-02-20T01:07:09.825Z,63.15
2018-02-20T01:09:37.722Z,68.75
2018-02-20T01:12:05.275Z,69.28
2018-02-20T01:14:33.174Z,72.70
2018-02-20T01:17:00.743Z,73.45
2018-02-20T01:19:28.292Z,71.45
2018-02-20T01:21:55.837Z,74.53
2018-02-20T01:24:23.506Z,81.07
2018-02-20T01:26:51.075Z,83.35
2018-02-20T01:29:18.632Z,82.78
2018-02-20T01:31:47.004Z,80.68
2018-02-20T01:34:15.932Z,66.45
2018-02-20T01:36:43.513Z,72.85
2018-02-20T01:39:11.062Z,71.65
2018-02-20T01:41:38.615Z,69.22
2018-02-20T01:44:06.400Z,77.72
2018-02-20T01:46:33.964Z,82.53
2018-02-20T01:49:01.526Z,84.65
2018-02-20T01:51:29.510Z,93.68
2018-02-20T01:53:57.053Z,82.28
2018-02-20T01:56:25.581Z,79.60
2018-02-20T01:58:53.162Z,85.93
2018-02-20T02:01:20.730Z,89.90
2018-02-20T02:03:49.128Z,94.32
2018-02-20T02:06:17.529Z,85.35
2018-02-20T02:08:45.085Z,96.00
2018-02-20T02:11:13.406Z,95.43
2018-02-20T02:13:40.978Z,94.35
2018-02-20T02:16:08.553Z,92.70
2018-02-20T02:18:36.086Z,93.15
2018-02-20T02:21:03.743Z,93.78
2018-02-20T02:23:31.401Z,80.95
2018-02-20T02:25:58.973Z,85.72
2018-02-20T02:28:26.577Z,81.30
2018-02-20T02:30:54.172Z,85.70
2018-02-20T02:33:21.724Z,91.57
2018-02-20T02:35:49.281Z,80.47
2018-02-20T02:38:17.743Z,81.57
2018-02-20T02:40:45.888Z,69.75
2018-02-20T02:43:13.560Z,102.40
2018-02-20T02:45:41.121Z,85.12
2018-02-20T02:48:08.689Z,83.70
2018-02-20T02:50:36.356Z,83.47
2018-02-20T02:53:03.952Z,91.45
2018-02-20T02:55:32.525Z,95.57
2018-02-20T02:58:00.125Z,82.50
2018-02-20T03:00:27.732Z,86.95
2018-02-20T03:02:55.261Z,78.45
2018-02-20T03:05:22.871Z,86.12
2018-02-20T03:07:50.485Z,97.40
2018-02-20T03:10:18.221Z,103.55
2018-02-20T03:12:47.185Z,89.85
2018-02-20T03:15:14.772Z,88.57
2018-02-20T03:17:42.298Z,89.10
2018-02-20T03:20:10.186Z,83.45
2018-02-20T03:22:38.714Z,92.80
2018-02-20T03:25:06.264Z,87.30
2018-02-20T03:27:33.843Z,85.87
2018-02-20T03:30:01.410Z,95.57
2018-02-20T03:32:28.983Z,95.80
2018-02-20T03:34:57.331Z,95.65
2018-02-20T03:37:24.883Z,92.90
2018-02-20T03:39:52.450Z,95.80
2018-02-20T03:42:20.887Z,96.85
2018-02-20T03:44:49.422Z,91.80
2018-02-20T03:47:17.935Z,92.40
2018-02-20T03:49:45.839Z,84.28
2018-02-20T03:52:13.497Z,76.18
2018-02-20T03:54:41.034Z,80.18
2018-02-20T03:57:08.626Z,92.90
2018-02-20T03:59:36.181Z,82.80
2018-02-20T04:02:03.748Z,74.35
2018-02-20T04:04:32.134Z,74.60
2018-02-20T04:07:00.487Z,79.90
2018-02-20T04:09:28.816Z,80.28
2018-02-20T04:11:56.436Z,80.53
2018-02-20T04:14:23.978Z,65.18
2018-02-20T04:16:51.553Z,67.68
2018-02-20T04:19:19.131Z,63.13
2018-02-20T04:21:47.344Z,59.03
2018-02-20T04:24:14.915Z,63.67
2018-02-20T04:26:42.544Z,63.20
2018-02-20T04:29:10.088Z,61.53
2018-02-20T04:31:37.699Z,57.47
2018-02-20T04:34:05.278Z,52.42
2018-02-20T04:36:32.954Z,54.50
2018-02-20T04:39:00.558Z,57.45
2018-02-20T04:41:28.253Z,58.45
2018-02-20T04:43:55.788Z,55.20
2018-02-20T04:46:23.337Z,56.15
2018-02-20T04:48:50.921Z,58.08
2018-02-20T04:51:18.507Z,63.80
2018-02-20T04:53:47.018Z,59.05
2018-02-20T04:56:14.614Z,64.68
2018-02-20T04:58:42.162Z,64.95
2018-02-20T05:01:09.718Z,65.72
2018-02-20T05:03:37.399Z,64.12
2018-02-20T05:06:04.964Z,60.67
2018-02-20T05:08:32.533Z,66.20
2018-02-20T05:11:00.121Z,61.17
2018-02-20T05:13:27.680Z,57.13
2018-02-20T05:15:55.218Z,60.88
2018-02-20T05:18:22.797Z,65.10
2018-02-20T05:20:51.294Z,69.80
2018-02-20T05:23:18.892Z,62.08
2018-02-20T05:25:47.201Z,63.97
2018-02-20T05:28:14.777Z,63.72
2018-02-20T05:30:42.331Z,64.80
2018-02-20T05:33:09.909Z,53.13
2018-02-20T05:35:37.448Z,66.00
2018-02-20T05:38:04.977Z,72.40
2018-02-20T05:40:32.997Z,72.82
2018-02-20T05:43:00.579Z,65.60
2018-02-20T05:45:28.159Z,60.35
2018-02-20T05:47:55.890Z,70.80
2018-02-20T05:50:23.442Z,70.80
2018-02-20T05:52:50.985Z,77.43
2018-02-20T05:55:18.582Z,71.90
2018-02-20T05:57:46.893Z,77.50
2018-02-20T06:00:14.481Z,86.15
2018-02-20T06:02:42.094Z,86.45
2018-02-20T06:05:09.737Z,71.10
2018-02-20T06:07:39.379Z,91.95
2018-02-20T06:10:07.031Z,77.75
2018-02-20T06:12:34.729Z,88.07
2018-02-20T06:15:02.275Z,77.35
2018-02-20T06:17:29.884Z,76.43
2018-02-20T06:19:57.452Z,80.10
2018-02-20T06:22:25.020Z,83.20
2018-02-20T06:24:53.150Z,81.68
2018-02-20T06:27:20.778Z,80.12
2018-02-20T06:29:53.134Z,79.90
2018-02-20T06:32:20.875Z,81.80
2018-02-20T06:34:48.563Z,88.65
2018-02-20T06:37:17.398Z,88.00
2018-02-20T06:39:45.055Z,77.82
2018-02-20T06:42:13.931Z,61.60
2018-02-20T06:44:42.245Z,63.03
2018-02-20T06:47:10.154Z,65.57
2018-02-20T06:49:38.490Z,60.03
2018-02-20T06:52:06.953Z,68.15
2018-02-20T06:54:34.917Z,57.28
2018-02-20T06:57:02.459Z,63.05
2018-02-20T06:59:30.128Z,75.53
2018-02-20T07:01:57.712Z,88.68
2018-02-20T07:04:26.214Z,87.80
2018-02-20T07:06:53.742Z,88.57
2018-02-20T07:09:21.634Z,95.60
2018-02-20T07:11:50.095Z,97.82
2018-02-20T07:14:18.850Z,90.40
2018-02-20T07:16:46.799Z,98.18
2018-02-20T07:19:15.138Z,88.22
2018-02-20T07:21:43.309Z,89.35
2018-02-20T07:24:10.957Z,81.57
2018-02-20T07:26:38.490Z,81.30
2018-02-20T07:29:06.040Z,78.07
2018-02-20T07:31:33.677Z,68.43
2018-02-20T07:34:01.236Z,70.43
2018-02-20T07:36:28.796Z,73.35
2018-02-20T07:38:56.379Z,56.42
2018-02-20T07:41:24.004Z,67.07
2018-02-20T07:43:51.614Z,64.35
2018-02-20T07:46:19.199Z,74.12
2018-02-20T07:48:48.889Z,64.25
2018-02-20T07:51:18.388Z,66.82
2018-02-20T07:53:46.751Z,72.72
2018-02-20T07:56:14.328Z,71.97
2018-02-20T07:58:41.865Z,77.93
2018-02-20T08:01:09.493Z,70.65
2018-02-20T08:03:37.082Z,68.40
2018-02-20T08:06:04.735Z,74.75
2018-02-20T08:08:32.303Z,64.62
2018-02-20T08:11:00.671Z,60.95
2018-02-20T08:13:28.243Z,67.10
2018-02-20T08:15:56.150Z,56.75
2018-02-20T08:18:23.718Z,52.20
2018-02-20T08:20:51.296Z,62.95
2018-02-20T08:23:19.181Z,60.17
2018-02-20T08:25:47.416Z,59.33
2018-02-20T08:28:14.933Z,61.45
2018-02-20T08:30:42.620Z,59.40
2018-02-20T08:33:10.156Z,48.80
2018-02-20T08:35:37.715Z,51.58
2018-02-20T08:38:07.768Z,55.90
2018-02-20T08:40:35.335Z,47.53
2018-02-20T08:43:02.899Z,47.20
2018-02-20T08:45:31.519Z,38.65
2018-02-20T08:47:59.815Z,47.75
2018-02-20T08:50:27.379Z,44.28
2018-02-20T08:52:55.323Z,36.60
2018-02-20T08:55:22.889Z,38.65
2018-02-20T08:57:50.428Z,46.78
2018-02-20T09:00:19.046Z,48.08
2018-02-20T09:02:47.853Z,39.50
2018-02-20T09:05:15.923Z,39.38
2018-02-20T09:07:43.527Z,37.75
2018-02-20T09:10:11.218Z,39.55
2018-02-20T09:12:39.509Z,39.72
2018-02-20T09:15:07.205Z,37.60
2018-02-20T09:17:34.758Z,38.67
2018-02-20T09:20:02.317Z,42.62
2018-02-20T09:22:30.218Z,45.83
2018-02-20T09:24:59.088Z,49.42
2018-02-20T09:27:26.687Z,57.90
2018-02-20T09:29:54.447Z,50.65
2018-02-20T09:32:21.858Z,51.55
2018-02-20T09:34:49.401Z,49.17
2018-02-20T09:37:18.131Z,43.67
2018-02-20T09:39:47.041Z,47.75
2018-02-20T09:42:14.619Z,56.80
2018-02-20T09:44:42.973Z,55.85
2018-02-20T09:47:12.247Z,47.25
2018-02-20T09:49:39.794Z,43.33
2018-02-20T09:52:07.383Z,46.75
2018-02-20T09:54:34.937Z,51.13
2018-02-20T09:57:02.522Z,35.58
2018-02-20T09:59:30.076Z,38.88
2018-02-20T10:01:58.423Z,37.28
2018-02-20T10:04:25.988Z,33.40
2018-02-20T10:06:54.420Z,39.95
2018-02-20T10:09:21.957Z,45.83
2018-02-20T10:11:49.507Z,57.25
2018-02-20T10:14:17.699Z,50.15
2018-02-20T10:16:45.876Z,47.00
2018-02-20T10:19:13.473Z,65.60
2018-02-20T10:21:41.957Z,60.38
2018-02-20T10:24:09.528Z,59.97
2018-02-20T10:26:38.439Z,57.83
2018-02-20T10:29:06.001Z,69.72
2018-02-20T10:31:34.561Z,65.75
2018-02-20T10:34:02.155Z,55.28
2018-02-20T10:36:29.748Z,47.45
2018-02-20T10:38:57.292Z,63.30
2018-02-20T10:41:24.887Z,51.25
2018-02-20T10:43:52.789Z,57.08
2018-02-20T10:46:20.342Z,63.25
2018-02-20T10:48:50.572Z,56.55
2018-02-20T10:51:18.229Z,50.78
2018-02-20T10:53:46.541Z,59.95
2018-02-20T10:56:14.921Z,61.05
2018-02-20T10:58:43.248Z,60.83
2018-02-20T11:01:10.829Z,61.25
2018-02-20T11:03:40.090Z,56.80
2018-02-20T11:06:07.709Z,61.13
2018-02-20T11:08:35.311Z,64.80
2018-02-20T11:11:03.638Z,53.78
2018-02-20T11:13:31.612Z,57.03
2018-02-20T11:15:59.937Z,60.22
2018-02-20T11:18:27.697Z,55.72
2018-02-20T11:20:55.278Z,52.95
2018-02-20T11:23:23.631Z,54.22
2018-02-20T11:25:51.998Z,58.85
2018-02-20T11:28:20.756Z,55.17
2018-02-20T11:30:48.306Z,67.32
2018-02-20T11:33:16.707Z,58.05
2018-02-20T11:35:44.307Z,57.85
2018-02-20T11:38:11.883Z,56.28
2018-02-20T11:40:39.438Z,46.20
2018-02-20T11:43:07.057Z,46.40
2018-02-20T11:45:35.368Z,39.40
2018-02-20T11:48:02.943Z,42.25
2018-02-20T11:50:31.459Z,48.67
2018-02-20T11:52:59.820Z,39.65
2018-02-20T11:55:27.397Z,53.80
2018-02-20T11:57:55.063Z,42.45
2018-02-20T12:00:22.621Z,42.92
2018-02-20T12:02:51.357Z,42.47
2018-02-20T12:05:19.328Z,42.30
2018-02-20T12:07:47.722Z,45.73
2018-02-20T12:10:16.943Z,41.95
2018-02-20T12:12:45.911Z,50.20
2018-02-20T12:15:14.422Z,41.47
2018-02-20T12:17:42.337Z,43.05
2018-02-20T12:20:10.215Z,41.13
2018-02-20T12:22:37.788Z,40.63
2018-02-20T12:25:05.407Z,38.28
2018-02-20T12:27:32.985Z,41.50
2018-02-20T12:30:00.565Z,39.10
2018-02-20T12:32:28.105Z,37.85
2018-02-20T12:34:56.448Z,36.83
2018-02-20T12:37:23.990Z,35.20
2018-02-20T12:39:51.554Z,39.03
2018-02-20T12:42:21.044Z,33.47
2018-02-20T12:44:49.445Z,36.80
2018-02-20T12:47:17.410Z,39.00
2018-02-20T12:49:45.029Z,43.07
2018-02-20T12:52:12.689Z,34.93
2018-02-20T12:54:40.242Z,36.80
2018-02-20T12:57:07.888Z,42.72
2018-02-20T12:59:35.475Z,38.92
2018-02-20T13:02:05.782Z,37.22
2018-02-20T13:04:34.107Z,36.83
2018-02-20T13:07:02.609Z,39.53
2018-02-20T13:09:30.934Z,39.00
2018-02-20T13:11:58.504Z,39.70
2018-02-20T13:14:26.945Z,44.57
2018-02-20T13:16:54.490Z,41.23
2018-02-20T13:19:22.048Z,36.20
2018-02-20T13:21:49.613Z,35.17
2018-02-20T13:24:18.082Z,36.80
2018-02-20T13:26:45.932Z,43.47
2018-02-20T13:29:14.955Z,49.40
2018-02-20T13:31:42.534Z,48.45
2018-02-20T13:34:10.871Z,43.53
2018-02-20T13:36:38.734Z,40.70
2018-02-20T13:39:07.223Z,47.30
2018-02-20T13:41:35.562Z,47.15
2018-02-20T13:44:03.151Z,49.17
2018-02-20T13:46:30.791Z,40.55
2018-02-20T13:48:58.354Z,41.60
2018-02-20T13:51:25.942Z,46.05
2018-02-20T13:53:53.536Z,42.33
2018-02-20T13:56:21.075Z,41.65
2018-02-20T13:58:48.645Z,41.63
2018-02-20T14:01:19.071Z,36.85
2018-02-20T14:03:46.897Z,41.45
2018-02-20T14:06:14.465Z,41.35
2018-02-20T14:08:42.052Z,43.67
2018-02-20T14:11:09.609Z,42.58
2018-02-20T14:13:37.190Z,41.08
2018-02-20T14:16:04.761Z,41.17
2018-02-20T14:18:32.361Z,46.40
2018-02-20T14:20:59.942Z,55.25
2018-02-20T14:23:27.648Z,55.97
2018-02-20T14:25:55.199Z,51.13
2018-02-20T14:28:24.146Z,50.12
2018-02-20T14:30:51.684Z,47.80
2018-02-20T14:33:19.982Z,51.15
2018-02-20T14:35:48.827Z,54.90
2018-02-20T14:38:17.074Z,54.50
2018-02-20T14:40:44.694Z,50.10
2018-02-20T14:43:12.386Z,53.42
2018-02-20T14:45:39.994Z,50.97
2018-02-20T14:48:07.562Z,58.83
2018-02-20T14:50:36.038Z,51.42
2018-02-20T14:53:04.510Z,48.03
2018-02-20T14:55:32.127Z,51.40
2018-02-20T14:58:00.441Z,46.70
2018-02-20T15:00:28.025Z,50.80
2018-02-20T15:02:55.564Z,43.38
2018-02-20T15:05:23.153Z,46.53
2018-02-20T15:07:50.721Z,49.15
2018-02-20T15:10:18.306Z,48.17
2018-02-20T15:12:47.774Z,42.78
2018-02-20T15:15:15.860Z,46.85
2018-02-20T15:17:43.437Z,56.00
2018-02-20T15:20:11.041Z,48.80
2018-02-20T15:22:39.599Z,54.75
2018-02-20T15:25:07.178Z,48.85
2018-02-20T15:27:34.742Z,52.67
2018-02-20T15:30:02.293Z,55.28
2018-02-20T15:32:29.882Z,55.80
2018-02-20T15:34:58.192Z,49.70
2018-02-20T15:37:26.296Z,50.85
2018-02-20T15:39:54.679Z,51.45
2018-02-20T15:42:22.229Z,55.88
2018-02-20T15:44:49.770Z,58.08
2018-02-20T15:47:19.639Z,61.58
2018-02-20T15:49:48.072Z,63.75
2018-02-20T15:52:16.334Z,64.47
2018-02-20T15:54:44.050Z,58.22
2018-02-20T15:57:12.632Z,52.33
2018-02-20T15:59:40.168Z,58.22
2018-02-20T16:02:07.802Z,61.03
2018-02-20T16:04:35.374Z,59.65
2018-02-20T16:07:02.972Z,67.95
2018-02-20T16:09:31.330Z,70.07
2018-02-20T16:11:58.997Z,71.87
2018-02-20T16:14:27.402Z,64.15
2018-02-20T16:16:54.971Z,75.97
2018-02-20T16:19:22.552Z,78.85
2018-02-20T16:21:50.858Z,81.18
2018-02-20T16:24:18.492Z,79.03
2018-02-20T16:26:46.999Z,74.30
2018-02-20T16:29:14.593Z,72.30
2018-02-20T16:31:42.154Z,80.85
2018-02-20T16:34:09.771Z,73.62
2018-02-20T16:36:38.155Z,68.18
2018-02-20T16:39:05.732Z,80.28
2018-02-20T16:41:33.447Z,86.53
2018-02-20T16:44:01.059Z,86.20
2018-02-20T16:46:29.371Z,88.45
2018-02-20T16:48:56.910Z,84.45
2018-02-20T16:51:24.491Z,88.30
2018-02-20T16:53:53.216Z,85.93
2018-02-20T16:56:20.777Z,85.62
2018-02-20T16:58:49.354Z,85.28
2018-02-20T17:01:17.934Z,82.05
2018-02-20T17:03:46.060Z,82.82
2018-02-20T17:06:14.470Z,83.70
2018-02-20T17:08:42.024Z,83.70
2018-02-20T17:11:09.631Z,88.50
2018-02-20T17:13:37.228Z,87.12
2018-02-20T17:16:05.114Z,80.38
2018-02-20T17:18:32.657Z,77.05
2018-02-20T17:21:00.220Z,69.10
2018-02-20T17:23:28.724Z,64.28
2018-02-20T17:25:56.293Z,65.80
2018-02-20T17:28:23.866Z,60.38
2018-02-20T17:30:52.206Z,54.47
2018-02-20T17:33:19.775Z,52.97
2018-02-20T17:35:48.281Z,54.95
2018-02-20T17:38:16.619Z,59.85
2018-02-20T17:40:44.940Z,56.60
2018-02-20T17:43:13.354Z,56.13
2018-02-20T17:45:40.922Z,54.33
2018-02-20T17:48:08.574Z,63.53
2018-02-20T17:50:36.143Z,68.93
2018-02-20T17:53:04.627Z,74.82
2018-02-20T17:55:32.293Z,75.03
2018-02-20T17:57:59.867Z,85.15
2018-02-20T18:00:28.238Z,84.00
2018-02-20T18:02:55.780Z,71.97
2018-02-20T18:05:25.325Z,88.57
2018-02-20T18:07:53.830Z,88.20
2018-02-20T18:10:21.400Z,94.28
2018-02-20T18:12:48.946Z,91.55
2018-02-20T18:15:18.227Z,87.65
2018-02-20T18:17:48.462Z,73.75
2018-02-20T18:20:16.861Z,74.53
2018-02-20T18:22:44.419Z,72.43
2018-02-20T18:25:12.021Z,77.72
2018-02-20T18:27:39.650Z,74.10
2018-02-20T18:30:08.006Z,90.03
2018-02-20T18:32:35.589Z,81.35
2018-02-20T18:35:03.184Z,68.75
2018-02-20T18:37:32.723Z,84.87
2018-02-20T18:40:01.222Z,83.03
2018-02-20T18:42:28.779Z,87.55
2018-02-20T18:44:56.377Z,83.20
2018-02-20T18:47:25.648Z,86.90
2018-02-20T18:49:54.469Z,86.60
2018-02-20T18:52:22.028Z,88.90
2018-02-20T18:54:49.610Z,81.07
2018-02-20T18:57:19.191Z,86.70
2018-02-20T18:59:47.960Z,90.40
2018-02-20T19:02:15.818Z,90.47
2018-02-20T19:04:44.282Z,91.43
2018-02-20T19:07:11.825Z,93.45
2018-02-20T19:09:39.390Z,82.88
2018-02-20T19:12:07.751Z,87.82
2018-02-20T19:14:36.126Z,96.95
2018-02-20T19:17:03.693Z,92.78
2018-02-20T19:19:31.263Z,90.97
2018-02-20T19:21:58.954Z,87.85
2018-02-20T19:24:28.240Z,88.40
2018-02-20T19:26:55.785Z,89.22
2018-02-20T19:29:24.159Z,101.28
2018-02-20T19:31:52.464Z,89.57
2018-02-20T19:34:20.061Z,102.68
2018-02-20T19:36:49.043Z,92.90
2018-02-20T19:39:16.993Z,96.05
2018-02-20T19:41:44.550Z,102.90
2018-02-20T19:44:12.176Z,96.80
2018-02-20T19:46:40.500Z,91.87
2018-02-20T19:49:08.167Z,99.78
2018-02-20T19:51:36.811Z,84.57
2018-02-20T19:54:04.361Z,97.65
2018-02-20T19:56:31.991Z,96.35
2018-02-20T19:58:59.547Z,102.12
2018-02-20T20:01:27.152Z,90.35
2018-02-20T20:03:55.500Z,108.85
2018-02-20T20:06:23.115Z,111.20
2018-02-20T20:08:51.429Z,99.78
2018-02-20T20:11:19.763Z,84.78
2018-02-20T20:13:48.323Z,93.95
2018-02-20T20:16:17.469Z,88.43
2018-02-20T20:18:46.827Z,90.40
2018-02-20T20:21:14.370Z,94.80
2018-02-20T20:23:42.754Z,90.78
2018-02-20T20:26:10.391Z,84.90
2018-02-20T20:28:38.023Z,83.85
2018-02-20T20:31:06.514Z,91.97
2018-02-20T20:33:34.175Z,89.70
2018-02-20T20:36:01.773Z,97.47
2018-02-20T20:38:31.378Z,97.18
2018-02-20T20:41:01.071Z,88.40
2018-02-20T20:43:31.453Z,93.82
2018-02-20T20:45:59.161Z,100.40
2018-02-20T20:48:26.763Z,90.25
2018-02-20T20:50:55.241Z,96.35
2018-02-20T20:53:24.526Z,88.47
2018-02-20T20:55:52.862Z,88.10
2018-02-20T20:58:20.447Z,94.93
2018-02-20T21:00:48.793Z,92.12
2018-02-20T21:03:17.988Z,95.80
2018-02-20T21:05:45.905Z,102.03
2018-02-20T21:08:13.472Z,86.40
2018-02-20T21:10:41.776Z,96.12
2018-02-20T21:13:09.405Z,88.78
2018-02-20T21:15:36.945Z,86.75
2018-02-20T21:18:04.544Z,100.25
2018-02-20T21:20:32.121Z,100.25
2018-02-20T21:22:59.693Z,99.45
2018-02-20T21:25:27.256Z,92.05
2018-02-20T21:27:55.655Z,92.95
2018-02-20T21:30:23.953Z,83.70
2018-02-20T21:32:51.529Z,91.15
2018-02-20T21:35:19.196Z,96.70
2018-02-20T21:37:49.102Z,106.60
2018-02-20T21:40:18.259Z,99.65
2018-02-20T21:42:46.687Z,86.45
2018-02-20T21:45:14.299Z,95.38
2018-02-20T21:47:41.868Z,106.35
2018-02-20T21:50:10.328Z,94.50
2018-02-20T21:52:37.918Z,92.95
2018-02-20T21:55:05.508Z,101.87
2018-02-20T21:57:33.152Z,104.45
2018-02-20T22:00:01.635Z,101.10
2018-02-20T22:02:30.085Z,98.15
2018-02-20T22:04:57.663Z,90.20
2018-02-20T22:07:25.208Z,89.68
2018-02-20T22:09:53.724Z,88.97
2018-02-20T22:12:21.290Z,109.25
2018-02-20T22:14:48.927Z,106.55
2018-02-20T22:17:16.910Z,97.88
2018-02-20T22:19:44.511Z,112.75
2018-02-20T22:22:12.053Z,112.18
2018-02-20T22:24:40.542Z,99.62
2018-02-20T22:27:08.092Z,99.57
2018-02-20T22:29:35.648Z,101.75
2018-02-20T22:32:03.236Z,89.45
2018-02-20T22:34:31.551Z,108.85
2018-02-20T22:37:00.060Z,114.90
2018-02-20T22:39:27.628Z,114.45
2018-02-20T22:41:55.201Z,98.97
2018-02-20T22:44:22.760Z,110.28
2018-02-20T22:46:50.343Z,98.10
2018-02-20T22:49:18.475Z,111.53
2018-02-20T22:51:47.556Z,98.37
2018-02-20T22:54:16.573Z,108.25
2018-02-20T22:56:44.243Z,108.07
2018-02-20T22:59:11.787Z,111.78
2018-02-20T23:01:39.425Z,115.10
2018-02-20T23:04:07.726Z,100.12
2018-02-20T23:06:35.273Z,102.12
2018-02-20T23:09:02.895Z,104.45
2018-02-20T23:11:42.874Z,100.47
2018-02-20T23:14:10.447Z,107.07
2018-02-20T23:16:38.755Z,110.88
2018-02-20T23:19:07.260Z,104.40
2018-02-20T23:21:34.848Z,110.80
2018-02-20T23:24:03.688Z,102.07
2018-02-20T23:26:31.221Z,105.47
2018-02-20T23:28:58.755Z,104.18
2018-02-20T23:31:26.342Z,104.60
2018-02-20T23:33:53.947Z,101.32
2018-02-20T23:36:21.551Z,110.18
2018-02-20T23:38:49.086Z,97.18
2018-02-20T23:41:17.699Z,106.00
2018-02-20T23:43:45.909Z,111.57
2018-02-20T23:46:13.469Z,114.57
2018-02-20T23:48:41.777Z,100.70
2018-02-20T23:51:15.865Z,96.95
2018-02-20T23:53:43.398Z,112.88
2018-02-20T23:56:10.942Z,102.20
2018-02-20T23:58:38.539Z,102.60
